Pagina principală
METAR-TAF:

METAR-TAF

Aeroporturi :

Golden, Columbia Britanică, Canada

Latitudine: 51-18N, longitudine: 116-59W, elevație: 785 m

Observații meteo curente

Raportul a fost făcut în urmă cu 1 oră și 46 de minute, la 00:00 UTC
Vânt 8 kt de la Nord-vest, variabil între Vest și Nord
Temperatură 15°C
Umiditate 44%
Presiune 1015 hPa
Vizibilitate: 32.2 km
Nori împrăștiați la o înălțime de 6000 picior, Cumulus congestus.
Nori împrăștiați la o înălțime de 20000 picior
Nori fragmentați la o înălțime de 24000 picior

METAR: CYGE 190000Z 31008KT 270V010 20SM SCT060TCU SCT200 BKN240 15/03 A2998 RMK TCU3CC1CI1 DIST SH E TCU ALQDS LAST STFD OBS/NXT 191200Z SLP163 DENSITY ALT 3200FT

Ora: 19:46 (01:46 UTC)


TAF: lipsă

Observații și prognoze meteo pentru peste 4.000 de aeroporturi (rapoarte METAR și TAF).

Stațiile disponibile sunt reprezentate pe hartă prin puncte galbene și roșii.

Țineți indicatorul mouse-ului pe punctul dorit pentru a vedea denumirea stației.

Apoi, faceți clic pentru a vedea observațiile și prognozele meteorologice.

Pentru a schimba harta: Pentru mărire, faceți clic pe butoanele verzi cu cruce neagră; pentru micșorare, pe butonul verde cu o liniuță; pentru hărți învecinate, pe săgețile verzi.


METAR-TAF: